Nippon Maru — 3FDA7 — position and weather

sailwx.info

Track history (hours):
 
Tides and Currents Weather Stations Pressure Air Temp Water Temp Dewpoint Dewpoint Depression Visibility Wind Speed Wind Dir Waves Ship Positions

Nippon Maru

Last reported at 2018-Apr-18 18:30 UTC. Time now 2018-Apr-23 17:29 UTC.
Position N 35°43' W 000°38'.

Length 190 m; draft 10.3 m.

Type: Cargo ship. MMSI: 353814000.

Date/timePositionNaut miles runAvg speedWind from/ knotsBaromVisibWave heightAir tempDewpointWater temp
2018-Apr-18 18:30N 35°43' W 000°38'0 0.0
2018-Apr-18 17:42N 35°43' W 000°38'0 0.0
2018-Apr-18 14:06N 35°43' W 000°38'0 0.0
2018-Apr-18 13:54N 35°43' W 000°38'0 0.0
2018-Apr-18 13:30N 35°43' W 000°38'0 0.0
2018-Apr-18 13:00N 35°43' W 000°38'0 0.0
2018-Apr-18 12:30N 35°43' W 000°38'0 0.0
2018-Apr-18 12:00N 35°43' W 000°38'0 0.0
2018-Apr-18 11:12N 35°43' W 000°38'0 0.0
2018-Apr-18 10:54N 35°43' W 000°38'0 0.0
2018-Apr-18 10:30N 35°43' W 000°38'0 0.0
2018-Apr-18 06:18N 35°43' W 000°38'0 0.0
2018-Apr-17 20:02N 35°43' W 000°38'1 2.4
2018-Apr-17 19:48N 35°43' W 000°38'1 1.9
2018-Apr-17 19:21N 35°44' W 000°37'1 3.6
2018-Apr-17 19:00N 35°45' W 000°37'201 5.4
2018-Apr-16 05:33N 36°03' W 004°45'314.8
2018-Apr-16 05:22N 36°02' W 004°48'513.5
2018-Apr-16 05:00N 36°02' W 004°54'713.4
2018-Apr-16 04:30N 36°01' W 005°02'713.4
2018-Apr-16 03:59N 35°60' W 005°11'715.0
2018-Apr-16 03:30N 35°59' W 005°20'714.8
2018-Apr-16 03:00N 35°57' W 005°29'713.6
2018-Apr-16 02:30N 35°55' W 005°37'812.9
2018-Apr-16 01:51N 35°53' W 005°47'  
2018-Apr-13 18:53N 28°46' W 014°37'410.5
2018-Apr-13 18:30N 28°43' W 014°40'510.5
2018-Apr-13 18:00N 28°40' W 014°44'510.4
2018-Apr-13 17:30N 28°36' W 014°48'510.3
2018-Apr-13 17:00N 28°32' W 014°52'510.6
2018-Apr-13 16:30N 28°28' W 014°57'611.0
2018-Apr-13 15:59N 28°24' W 015°01'510.8
2018-Apr-13 15:30N 28°21' W 015°05'510.8
2018-Apr-13 15:00N 28°17' W 015°09'510.8
2018-Apr-13 14:30N 28°13' W 015°14'510.8
2018-Apr-13 14:00N 28°09' W 015°18'5 9.2
2018-Apr-13 13:30N 28°06' W 015°22'2 4.7
2018-Apr-13 13:00N 28°07' W 015°25'0 0.1
2018-Apr-13 12:20N 28°07' W 015°25'0 0.0
2018-Apr-13 11:56N 28°07' W 015°25'0 0.0
2018-Apr-13 11:26N 28°07' W 015°25'0 0.0
2018-Apr-13 10:56N 28°07' W 015°25'0 0.0
2018-Apr-13 10:26N 28°07' W 015°25'0 0.0
2018-Apr-13 09:55N 28°07' W 015°25'0 0.0
2018-Apr-13 09:26N 28°07' W 015°25'0 0.0
2018-Apr-13 08:59N 28°07' W 015°25'0 0.0
2018-Apr-13 08:29N 28°07' W 015°25'0 0.0
2018-Apr-13 07:59N 28°07' W 015°25'0 0.0
2018-Apr-13 07:29N 28°07' W 015°25'0 0.0
2018-Apr-13 06:58N 28°07' W 015°25'0 0.0
2018-Apr-13 06:25N 28°07' W 015°25'0 0.1
2018-Apr-13 05:56N 28°07' W 015°25'0 0.0
2018-Apr-13 05:28N 28°07' W 015°25'0 0.1
2018-Apr-13 05:00N 28°07' W 015°25'2 3.1
2018-Apr-13 04:27N 28°06' W 015°23'0 0.3
2018-Apr-13 03:57N 28°06' W 015°23'0 0.3
2018-Apr-13 03:30N 28°06' W 015°23'0 0.0
2018-Apr-13 02:57N 28°06' W 015°23'0 0.0
2018-Apr-13 02:27N 28°06' W 015°23'0 0.0
2018-Apr-13 02:00N 28°06' W 015°23'0 0.0
2018-Apr-13 01:30N 28°06' W 015°23'0 0.0
2018-Apr-13 01:00N 28°06' W 015°23'0 0.0
2018-Apr-13 00:30N 28°06' W 015°23'0 0.0
2018-Apr-12 23:51N 28°06' W 015°23'0 0.1
2018-Apr-12 23:30N 28°06' W 015°23'0 0.0
2018-Apr-12 22:51N 28°06' W 015°23'0 0.0
2018-Apr-12 22:21N 28°06' W 015°23'0 0.0
2018-Apr-12 21:54N 28°06' W 015°23'0 0.0
2018-Apr-12 21:24N 28°06' W 015°23'0 0.0
2018-Apr-12 20:54N 28°06' W 015°23'0 0.0
2018-Apr-12 20:24N 28°06' W 015°23'0 0.0
2018-Apr-12 19:54N 28°06' W 015°23'0 0.0
2018-Apr-12 19:24N 28°06' W 015°23'0 0.0
2018-Apr-12 18:54N 28°06' W 015°23'0 0.0
2018-Apr-12 18:27N 28°06' W 015°23'0 0.0
2018-Apr-12 17:57N 28°06' W 015°23'0 0.0
2018-Apr-12 17:27N 28°06' W 015°23'0 0.0
2018-Apr-12 16:57N 28°06' W 015°23'0 0.0
2018-Apr-12 16:27N 28°06' W 015°23'0 0.0
2018-Apr-12 16:00N 28°06' W 015°23'0 0.0
2018-Apr-12 15:30N 28°06' W 015°23'0 0.0
2018-Apr-12 15:00N 28°06' W 015°23'0 0.0
2018-Apr-12 14:30N 28°06' W 015°23'0 0.0
2018-Apr-12 14:00N 28°06' W 015°23'0 0.0
2018-Apr-12 13:30N 28°06' W 015°23'0 0.0
2018-Apr-12 13:00N 28°06' W 015°23'0 0.0
2018-Apr-12 12:30N 28°06' W 015°23'0 0.1
2018-Apr-12 12:00N 28°06' W 015°23'0 0.0
2018-Apr-12 11:30N 28°06' W 015°23'0 0.0
2018-Apr-12 11:00N 28°06' W 015°23'0 0.0
2018-Apr-12 10:30N 28°06' W 015°23'0 0.0
2018-Apr-12 10:00N 28°06' W 015°23'0 0.0
2018-Apr-12 09:30N 28°06' W 015°23'0 0.0
2018-Apr-12 09:00N 28°06' W 015°23'0 0.0
2018-Apr-12 08:21N 28°06' W 015°23'0 0.0
2018-Apr-12 07:51N 28°06' W 015°23'0 0.0
2018-Apr-12 07:21N 28°06' W 015°23'0 0.0
2018-Apr-12 06:54N 28°06' W 015°23'0 0.0
2018-Apr-12 06:24N 28°06' W 015°23'0 0.1
2018-Apr-12 05:54N 28°06' W 015°23'0 0.0
2018-Apr-12 05:24N 28°06' W 015°23'0 0.0
2018-Apr-12 04:54N 28°06' W 015°23'0 0.0
2018-Apr-12 04:27N 28°06' W 015°23'0 0.0
2018-Apr-12 03:57N 28°06' W 015°23'0 0.0
2018-Apr-12 03:27N 28°06' W 015°23'0 0.0
2018-Apr-12 02:57N 28°06' W 015°23'0 0.0
2018-Apr-12 02:27N 28°06' W 015°23'0 0.0
2018-Apr-12 02:00N 28°06' W 015°23'0 0.0
2018-Apr-12 01:30N 28°06' W 015°23'0 0.0
2018-Apr-12 01:00N 28°06' W 015°23'0 0.0
2018-Apr-12 00:30N 28°06' W 015°23'0 0.0
2018-Apr-12 00:00N 28°06' W 015°23'0 0.0
2018-Apr-11 23:27N 28°06' W 015°23'0 0.0
2018-Apr-11 23:00N 28°06' W 015°23'0 0.0
2018-Apr-11 22:27N 28°06' W 015°23'0 0.0
2018-Apr-11 22:00N 28°06' W 015°23'0 0.0
2018-Apr-11 21:30N 28°06' W 015°23'0 0.0
2018-Apr-11 21:00N 28°06' W 015°23'0 0.0
2018-Apr-11 20:30N 28°06' W 015°23'0 0.0
2018-Apr-11 20:00N 28°06' W 015°23'0 0.0
2018-Apr-11 19:30N 28°06' W 015°23'0 0.1
2018-Apr-11 18:51N 28°06' W 015°23'0 0.0
2018-Apr-11 18:21N 28°06' W 015°23'0 0.1
2018-Apr-11 17:51N 28°06' W 015°23'0 0.2
2018-Apr-11 17:21N 28°06' W 015°23'0 0.0
2018-Apr-11 16:54N 28°06' W 015°23'0 0.2
2018-Apr-11 16:24N 28°06' W 015°23'0 0.0
2018-Apr-11 15:54N 28°06' W 015°23'0 0.0
2018-Apr-11 15:24N 28°06' W 015°23'0 0.0
2018-Apr-11 14:57N 28°06' W 015°23'0 0.0
2018-Apr-11 14:27N 28°06' W 015°23'0 0.0
2018-Apr-11 13:57N 28°06' W 015°23'0 0.0
2018-Apr-11 13:24N 28°06' W 015°23'0 0.1
2018-Apr-11 12:57N 28°06' W 015°23'0 0.0
2018-Apr-11 12:30N 28°06' W 015°23'0 0.0
2018-Apr-11 12:00N 28°06' W 015°23'0 0.0
2018-Apr-11 11:27N 28°06' W 015°23'0 0.0
2018-Apr-11 11:00N 28°06' W 015°23'0 0.0
2018-Apr-11 10:30N 28°06' W 015°23'0 0.0
2018-Apr-11 10:00N 28°06' W 015°23'0 0.0
2018-Apr-11 09:18N 28°06' W 015°23'0 0.0
2018-Apr-11 09:00N 28°06' W 015°23'0 0.1
2018-Apr-11 08:30N 28°06' W 015°23'0 0.1
2018-Apr-11 08:00N 28°06' W 015°23'0 0.4
2018-Apr-11 07:30N 28°06' W 015°23'2 3.6
2018-Apr-11 07:00N 28°07' W 015°21'4 7.6
2018-Apr-11 06:30N 28°07' W 015°17'5 9.9
2018-Apr-11 06:00N 28°07' W 015°11'611.6
2018-Apr-11 05:30N 28°08' W 015°05'511.0
2018-Apr-11 05:00N 28°06' W 014°59'4 7.9
2018-Apr-11 04:30N 28°02' W 014°58'510.7
2018-Apr-11 04:01N 27°57' W 014°59'510.5
2018-Apr-11 03:30N 27°52' W 015°01'510.3
2018-Apr-11 03:00N 27°48' W 015°04'510.3
2018-Apr-11 02:30N 27°43' W 015°06'510.5
2018-Apr-11 02:00N 27°38' W 015°09'510.3
2018-Apr-11 01:30N 27°34' W 015°11'510.2
2018-Apr-11 01:00N 27°29' W 015°14'  
Track history (hours):
 
Tides and Currents Weather Stations Pressure Air Temp Water Temp Dewpoint Dewpoint Depression Visibility Wind Speed Wind Dir Waves Ship Positions

Nippon Maru

Last reported at 2018-Apr-18 18:30 UTC. Time now 2018-Apr-23 17:29 UTC.
Position N 35°43' W 000°38'.

Length 190 m; draft 10.3 m.

Type: Cargo ship. MMSI: 353814000.

Date/timePositionNaut miles runAvg speedWind from/ knotsBaromVisibWave heightAir tempDewpointWater temp
2018-Apr-18 18:30N 35°43' W 000°38'0 0.0
2018-Apr-18 17:42N 35°43' W 000°38'0 0.0
2018-Apr-18 14:06N 35°43' W 000°38'0 0.0
2018-Apr-18 13:54N 35°43' W 000°38'0 0.0
2018-Apr-18 13:30N 35°43' W 000°38'0 0.0
2018-Apr-18 13:00N 35°43' W 000°38'0 0.0
2018-Apr-18 12:30N 35°43' W 000°38'0 0.0
2018-Apr-18 12:00N 35°43' W 000°38'0 0.0
2018-Apr-18 11:12N 35°43' W 000°38'0 0.0
2018-Apr-18 10:54N 35°43' W 000°38'0 0.0
2018-Apr-18 10:30N 35°43' W 000°38'0 0.0
2018-Apr-18 06:18N 35°43' W 000°38'0 0.0
2018-Apr-17 20:02N 35°43' W 000°38'1 2.4
2018-Apr-17 19:48N 35°43' W 000°38'1 1.9
2018-Apr-17 19:21N 35°44' W 000°37'1 3.6
2018-Apr-17 19:00N 35°45' W 000°37'201 5.4
2018-Apr-16 05:33N 36°03' W 004°45'314.8
2018-Apr-16 05:22N 36°02' W 004°48'513.5
2018-Apr-16 05:00N 36°02' W 004°54'713.4
2018-Apr-16 04:30N 36°01' W 005°02'713.4
2018-Apr-16 03:59N 35°60' W 005°11'715.0
2018-Apr-16 03:30N 35°59' W 005°20'714.8
2018-Apr-16 03:00N 35°57' W 005°29'713.6
2018-Apr-16 02:30N 35°55' W 005°37'812.9
2018-Apr-16 01:51N 35°53' W 005°47'  
2018-Apr-13 18:53N 28°46' W 014°37'410.5
2018-Apr-13 18:30N 28°43' W 014°40'510.5
2018-Apr-13 18:00N 28°40' W 014°44'510.4
2018-Apr-13 17:30N 28°36' W 014°48'510.3
2018-Apr-13 17:00N 28°32' W 014°52'510.6
2018-Apr-13 16:30N 28°28' W 014°57'611.0
2018-Apr-13 15:59N 28°24' W 015°01'510.8
2018-Apr-13 15:30N 28°21' W 015°05'510.8
2018-Apr-13 15:00N 28°17' W 015°09'510.8
2018-Apr-13 14:30N 28°13' W 015°14'510.8
2018-Apr-13 14:00N 28°09' W 015°18'5 9.2
2018-Apr-13 13:30N 28°06' W 015°22'2 4.7
2018-Apr-13 13:00N 28°07' W 015°25'0 0.1
2018-Apr-13 12:20N 28°07' W 015°25'0 0.0
2018-Apr-13 11:56N 28°07' W 015°25'0 0.0
2018-Apr-13 11:26N 28°07' W 015°25'0 0.0
2018-Apr-13 10:56N 28°07' W 015°25'0 0.0
2018-Apr-13 10:26N 28°07' W 015°25'0 0.0
2018-Apr-13 09:55N 28°07' W 015°25'0 0.0
2018-Apr-13 09:26N 28°07' W 015°25'0 0.0
2018-Apr-13 08:59N 28°07' W 015°25'0 0.0
2018-Apr-13 08:29N 28°07' W 015°25'0 0.0
2018-Apr-13 07:59N 28°07' W 015°25'0 0.0
2018-Apr-13 07:29N 28°07' W 015°25'0 0.0
2018-Apr-13 06:58N 28°07' W 015°25'0 0.0
2018-Apr-13 06:25N 28°07' W 015°25'0 0.1
2018-Apr-13 05:56N 28°07' W 015°25'0 0.0
2018-Apr-13 05:28N 28°07' W 015°25'0 0.1
2018-Apr-13 05:00N 28°07' W 015°25'2 3.1
2018-Apr-13 04:27N 28°06' W 015°23'0 0.3
2018-Apr-13 03:57N 28°06' W 015°23'0 0.3
2018-Apr-13 03:30N 28°06' W 015°23'0 0.0
2018-Apr-13 02:57N 28°06' W 015°23'0 0.0
2018-Apr-13 02:27N 28°06' W 015°23'0 0.0
2018-Apr-13 02:00N 28°06' W 015°23'0 0.0
2018-Apr-13 01:30N 28°06' W 015°23'0 0.0
2018-Apr-13 01:00N 28°06' W 015°23'0 0.0
2018-Apr-13 00:30N 28°06' W 015°23'0 0.0
2018-Apr-12 23:51N 28°06' W 015°23'0 0.1
2018-Apr-12 23:30N 28°06' W 015°23'0 0.0
2018-Apr-12 22:51N 28°06' W 015°23'0 0.0
2018-Apr-12 22:21N 28°06' W 015°23'0 0.0
2018-Apr-12 21:54N 28°06' W 015°23'0 0.0
2018-Apr-12 21:24N 28°06' W 015°23'0 0.0
2018-Apr-12 20:54N 28°06' W 015°23'0 0.0
2018-Apr-12 20:24N 28°06' W 015°23'0 0.0
2018-Apr-12 19:54N 28°06' W 015°23'0 0.0
2018-Apr-12 19:24N 28°06' W 015°23'0 0.0
2018-Apr-12 18:54N 28°06' W 015°23'0 0.0
2018-Apr-12 18:27N 28°06' W 015°23'0 0.0
2018-Apr-12 17:57N 28°06' W 015°23'0 0.0
2018-Apr-12 17:27N 28°06' W 015°23'0 0.0
2018-Apr-12 16:57N 28°06' W 015°23'0 0.0
2018-Apr-12 16:27N 28°06' W 015°23'0 0.0
2018-Apr-12 16:00N 28°06' W 015°23'0 0.0
2018-Apr-12 15:30N 28°06' W 015°23'0 0.0
2018-Apr-12 15:00N 28°06' W 015°23'0 0.0
2018-Apr-12 14:30N 28°06' W 015°23'0 0.0
2018-Apr-12 14:00N 28°06' W 015°23'0 0.0
2018-Apr-12 13:30N 28°06' W 015°23'0 0.0
2018-Apr-12 13:00N 28°06' W 015°23'0 0.0
2018-Apr-12 12:30N 28°06' W 015°23'0 0.1
2018-Apr-12 12:00N 28°06' W 015°23'0 0.0
2018-Apr-12 11:30N 28°06' W 015°23'0 0.0
2018-Apr-12 11:00N 28°06' W 015°23'0 0.0
2018-Apr-12 10:30N 28°06' W 015°23'0 0.0
2018-Apr-12 10:00N 28°06' W 015°23'0 0.0
2018-Apr-12 09:30N 28°06' W 015°23'0 0.0
2018-Apr-12 09:00N 28°06' W 015°23'0 0.0
2018-Apr-12 08:21N 28°06' W 015°23'0 0.0
2018-Apr-12 07:51N 28°06' W 015°23'0 0.0
2018-Apr-12 07:21N 28°06' W 015°23'0 0.0
2018-Apr-12 06:54N 28°06' W 015°23'0 0.0
2018-Apr-12 06:24N 28°06' W 015°23'0 0.1
2018-Apr-12 05:54N 28°06' W 015°23'0 0.0
2018-Apr-12 05:24N 28°06' W 015°23'0 0.0
2018-Apr-12 04:54N 28°06' W 015°23'0 0.0
2018-Apr-12 04:27N 28°06' W 015°23'0 0.0
2018-Apr-12 03:57N 28°06' W 015°23'0 0.0
2018-Apr-12 03:27N 28°06' W 015°23'0 0.0
2018-Apr-12 02:57N 28°06' W 015°23'0 0.0
2018-Apr-12 02:27N 28°06' W 015°23'0 0.0
2018-Apr-12 02:00N 28°06' W 015°23'0 0.0
2018-Apr-12 01:30N 28°06' W 015°23'0 0.0
2018-Apr-12 01:00N 28°06' W 015°23'0 0.0
2018-Apr-12 00:30N 28°06' W 015°23'0 0.0
2018-Apr-12 00:00N 28°06' W 015°23'0 0.0
2018-Apr-11 23:27N 28°06' W 015°23'0 0.0
2018-Apr-11 23:00N 28°06' W 015°23'0 0.0
2018-Apr-11 22:27N 28°06' W 015°23'0 0.0
2018-Apr-11 22:00N 28°06' W 015°23'0 0.0
2018-Apr-11 21:30N 28°06' W 015°23'0 0.0
2018-Apr-11 21:00N 28°06' W 015°23'0 0.0
2018-Apr-11 20:30N 28°06' W 015°23'0 0.0
2018-Apr-11 20:00N 28°06' W 015°23'0 0.0
2018-Apr-11 19:30N 28°06' W 015°23'0 0.1
2018-Apr-11 18:51N 28°06' W 015°23'0 0.0
2018-Apr-11 18:21N 28°06' W 015°23'0 0.1
2018-Apr-11 17:51N 28°06' W 015°23'0 0.2
2018-Apr-11 17:21N 28°06' W 015°23'0 0.0
2018-Apr-11 16:54N 28°06' W 015°23'0 0.2
2018-Apr-11 16:24N 28°06' W 015°23'0 0.0
2018-Apr-11 15:54N 28°06' W 015°23'0 0.0
2018-Apr-11 15:24N 28°06' W 015°23'0 0.0
2018-Apr-11 14:57N 28°06' W 015°23'0 0.0
2018-Apr-11 14:27N 28°06' W 015°23'0 0.0
2018-Apr-11 13:57N 28°06' W 015°23'0 0.0
2018-Apr-11 13:24N 28°06' W 015°23'0 0.1
2018-Apr-11 12:57N 28°06' W 015°23'0 0.0
2018-Apr-11 12:30N 28°06' W 015°23'0 0.0
2018-Apr-11 12:00N 28°06' W 015°23'0 0.0
2018-Apr-11 11:27N 28°06' W 015°23'0 0.0
2018-Apr-11 11:00N 28°06' W 015°23'0 0.0
2018-Apr-11 10:30N 28°06' W 015°23'0 0.0
2018-Apr-11 10:00N 28°06' W 015°23'0 0.0
2018-Apr-11 09:18N 28°06' W 015°23'0 0.0
2018-Apr-11 09:00N 28°06' W 015°23'0 0.1
2018-Apr-11 08:30N 28°06' W 015°23'0 0.1
2018-Apr-11 08:00N 28°06' W 015°23'0 0.4
2018-Apr-11 07:30N 28°06' W 015°23'2 3.6
2018-Apr-11 07:00N 28°07' W 015°21'4 7.6
2018-Apr-11 06:30N 28°07' W 015°17'5 9.9
2018-Apr-11 06:00N 28°07' W 015°11'611.6
2018-Apr-11 05:30N 28°08' W 015°05'511.0
2018-Apr-11 05:00N 28°06' W 014°59'4 7.9
2018-Apr-11 04:30N 28°02' W 014°58'510.7
2018-Apr-11 04:01N 27°57' W 014°59'510.5
2018-Apr-11 03:30N 27°52' W 015°01'510.3
2018-Apr-11 03:00N 27°48' W 015°04'510.3
2018-Apr-11 02:30N 27°43' W 015°06'510.5
2018-Apr-11 02:00N 27°38' W 015°09'510.3
2018-Apr-11 01:30N 27°34' W 015°11'510.2
2018-Apr-11 01:00N 27°29' W 015°14'  

Dump ship's entire track history